createdAt,value
2017-06-13T00:02:23.824Z,52.10
2017-06-13T00:04:57.614Z,52.40
2017-06-13T00:07:32.178Z,52.20
2017-06-13T00:10:06.852Z,52.10
2017-06-13T00:12:40.960Z,52.20
2017-06-13T00:15:14.652Z,52.20
2017-06-13T00:17:48.513Z,52.40
2017-06-13T00:20:22.229Z,52.10
2017-06-13T00:22:56.960Z,52.20
2017-06-13T00:25:30.861Z,52.20
2017-06-13T00:28:04.652Z,51.60
2017-06-13T00:30:38.464Z,51.20
2017-06-13T00:33:12.256Z,52.20
2017-06-13T00:35:45.920Z,52.20
2017-06-13T00:38:19.632Z,53.40
2017-06-13T00:40:53.252Z,55.70
2017-06-13T00:43:27.692Z,56.10
2017-06-13T00:46:01.561Z,56.10
2017-06-13T00:48:35.476Z,56.20
2017-06-13T00:51:09.992Z,56.00
2017-06-13T00:53:44.553Z,57.00
2017-06-13T00:56:18.469Z,56.90
2017-06-13T00:58:52.333Z,55.80
2017-06-13T01:01:26.028Z,56.70
2017-06-13T01:03:59.793Z,56.90
2017-06-13T01:06:34.276Z,57.20
2017-06-13T01:09:08.440Z,57.10
2017-06-13T01:11:42.804Z,57.30
2017-06-13T01:14:16.824Z,57.20
2017-06-13T01:16:50.600Z,58.10
2017-06-13T01:19:24.500Z,58.20
2017-06-13T01:21:58.284Z,57.50
2017-06-13T01:24:32.060Z,59.00
2017-06-13T01:27:05.815Z,58.40
2017-06-13T01:29:40.603Z,57.60
2017-06-13T01:32:14.420Z,58.00
2017-06-13T01:34:48.316Z,59.10
2017-06-13T01:37:22.152Z,58.90
2017-06-13T01:39:56.401Z,59.70
2017-06-13T01:42:30.809Z,59.20
2017-06-13T01:45:04.605Z,59.80
2017-06-13T01:47:39.163Z,58.90
2017-06-13T01:50:13.161Z,58.90
2017-06-13T01:52:46.849Z,58.90
2017-06-13T01:55:20.720Z,60.00
2017-06-13T01:57:54.425Z,60.20
2017-06-13T02:00:29.877Z,61.20
2017-06-13T02:03:03.865Z,61.00
2017-06-13T02:05:37.680Z,59.80
2017-06-13T02:08:11.397Z,59.40
2017-06-13T02:10:45.264Z,59.30
2017-06-13T02:13:19.684Z,60.00
2017-06-13T02:15:53.680Z,60.00
2017-06-13T02:18:27.432Z,59.60
2017-06-13T02:21:01.309Z,59.00
2017-06-13T02:23:35.725Z,59.70
2017-06-13T02:26:09.644Z,59.70
2017-06-13T02:28:44.156Z,59.90
2017-06-13T02:31:18.351Z,59.90
2017-06-13T02:33:52.001Z,59.80
2017-06-13T02:36:25.764Z,58.90
2017-06-13T02:38:59.377Z,58.60
2017-06-13T02:41:33.261Z,59.90
2017-06-13T02:44:07.696Z,60.20
2017-06-13T02:46:41.681Z,60.20
2017-06-13T02:49:16.232Z,61.20
2017-06-13T02:51:50.396Z,61.20
2017-06-13T02:54:25.021Z,60.20
2017-06-13T02:56:58.790Z,60.20
2017-06-13T02:59:32.530Z,61.50
2017-06-13T03:02:07.870Z,59.20
2017-06-13T03:04:41.813Z,59.10
2017-06-13T03:07:15.604Z,59.50
2017-06-13T03:09:49.349Z,60.60
2017-06-13T03:12:23.044Z,61.30
2017-06-13T03:14:56.797Z,60.30
2017-06-13T03:17:30.556Z,61.40
2017-06-13T03:20:04.205Z,61.20
2017-06-13T03:22:38.836Z,62.40
2017-06-13T03:25:12.736Z,62.30
2017-06-13T03:27:47.426Z,61.30
2017-06-13T03:30:21.142Z,61.40
2017-06-13T03:32:56.529Z,59.90
2017-06-13T03:35:31.193Z,62.60
2017-06-13T03:38:05.221Z,62.60
2017-06-13T03:40:38.981Z,62.50
2017-06-13T03:43:13.597Z,63.90
2017-06-13T03:45:47.412Z,63.80
2017-06-13T03:48:22.108Z,62.70
2017-06-13T03:50:55.992Z,62.60
2017-06-13T03:53:30.529Z,61.40
2017-06-13T03:56:05.236Z,64.10
2017-06-13T03:58:39.292Z,64.10
2017-06-13T04:01:13.800Z,61.80
2017-06-13T04:03:48.242Z,61.80
2017-06-13T04:06:22.185Z,61.80
2017-06-13T04:08:56.868Z,62.70
2017-06-13T04:11:30.869Z,62.50
2017-06-13T04:14:05.385Z,63.40
2017-06-13T04:16:39.324Z,63.40
2017-06-13T04:19:13.971Z,62.00
2017-06-13T04:21:49.224Z,64.10
2017-06-13T04:24:23.056Z,64.10
2017-06-13T04:26:56.837Z,62.60
2017-06-13T04:29:31.296Z,62.00
2017-06-13T04:32:04.968Z,62.70
2017-06-13T04:34:38.644Z,63.10
2017-06-13T04:37:12.257Z,63.00
2017-06-13T04:39:45.964Z,63.20
2017-06-13T04:42:19.592Z,63.70
2017-06-13T04:44:53.468Z,63.60
2017-06-13T04:47:28.040Z,64.30
2017-06-13T04:50:01.896Z,64.50
2017-06-13T04:52:35.603Z,64.30
2017-06-13T04:55:09.268Z,65.30
2017-06-13T04:57:43.782Z,64.30
2017-06-13T05:00:18.313Z,64.40
2017-06-13T05:02:52.201Z,64.50
2017-06-13T05:05:26.821Z,64.30
2017-06-13T05:08:00.864Z,64.10
2017-06-13T05:10:34.574Z,64.90
2017-06-13T05:13:09.037Z,65.10
2017-06-13T05:15:43.801Z,64.80
2017-06-13T05:18:18.493Z,64.70
2017-06-13T05:20:53.437Z,65.70
2017-06-13T05:23:27.312Z,64.70
2017-06-13T05:26:00.943Z,65.10
2017-06-13T05:28:35.494Z,64.00
2017-06-13T05:31:09.903Z,62.40
2017-06-13T05:33:44.716Z,62.10
2017-06-13T05:36:19.581Z,63.00
2017-06-13T05:38:54.274Z,62.70
2017-06-13T05:41:29.144Z,64.70
2017-06-13T05:44:03.925Z,65.20
2017-06-13T05:46:38.572Z,61.00
2017-06-13T05:49:12.588Z,60.90
2017-06-13T05:51:47.116Z,60.40
2017-06-13T05:54:21.025Z,60.30
2017-06-13T05:56:55.568Z,60.00
2017-06-13T05:59:30.241Z,60.70
2017-06-13T06:02:04.346Z,60.70
2017-06-13T06:04:38.975Z,60.00
2017-06-13T06:07:12.889Z,59.90
2017-06-13T06:09:47.304Z,59.60
2017-06-13T06:12:21.540Z,59.60
2017-06-13T06:14:55.324Z,57.50
2017-06-13T06:17:29.187Z,59.30
2017-06-13T06:20:02.881Z,60.10
2017-06-13T06:22:37.493Z,54.60
2017-06-13T06:25:11.407Z,54.50
2017-06-13T06:27:46.116Z,55.20
2017-06-13T06:30:19.892Z,52.40
2017-06-13T06:32:54.648Z,54.10
2017-06-13T06:35:29.264Z,54.30
2017-06-13T06:38:03.218Z,54.20
2017-06-13T06:40:37.696Z,52.30
2017-06-13T06:43:12.564Z,51.00
2017-06-13T06:45:46.388Z,50.60
2017-06-13T06:48:20.432Z,51.80
2017-06-13T06:50:54.040Z,52.00
2017-06-13T06:53:28.041Z,50.70
2017-06-13T06:56:02.462Z,49.70
2017-06-13T06:58:37.455Z,49.70
2017-06-13T07:01:11.201Z,49.80
2017-06-13T07:03:44.943Z,49.90
2017-06-13T07:06:18.683Z,50.30
2017-06-13T07:08:52.416Z,51.20
2017-06-13T07:11:26.168Z,51.50
2017-06-13T07:13:59.928Z,49.20
2017-06-13T07:16:33.744Z,49.20
2017-06-13T07:19:08.412Z,50.00
2017-06-13T07:21:42.304Z,49.90
2017-06-13T07:24:16.162Z,50.10
2017-06-13T07:26:49.884Z,48.60
2017-06-13T07:29:23.856Z,48.00
2017-06-13T07:31:58.308Z,48.20
2017-06-13T07:34:32.460Z,48.10
2017-06-13T07:37:06.174Z,47.90
2017-06-13T07:39:39.963Z,47.00
2017-06-13T07:42:13.785Z,46.50
2017-06-13T07:44:47.636Z,47.10
2017-06-13T07:47:21.409Z,46.40
2017-06-13T07:49:55.149Z,42.60
2017-06-13T07:52:29.681Z,42.70
2017-06-13T07:55:03.748Z,42.70
2017-06-13T07:57:38.111Z,43.10
2017-06-13T08:00:11.964Z,43.00
2017-06-13T08:02:46.444Z,42.60
2017-06-13T08:05:20.624Z,42.50
2017-06-13T08:07:55.292Z,44.00
2017-06-13T08:10:29.360Z,44.00
2017-06-13T08:13:03.068Z,44.20
2017-06-13T08:15:36.921Z,43.70
2017-06-13T08:18:10.496Z,44.20
2017-06-13T08:20:44.282Z,43.60
2017-06-13T08:23:18.008Z,41.50
2017-06-13T08:25:51.977Z,41.00
2017-06-13T08:28:25.741Z,41.60
2017-06-13T08:31:00.293Z,41.80
2017-06-13T08:33:34.350Z,41.50
2017-06-13T08:36:08.208Z,42.60
2017-06-13T08:38:41.978Z,43.40
2017-06-13T08:41:15.763Z,42.90
2017-06-13T08:43:49.388Z,43.50
2017-06-13T08:46:24.053Z,42.70
2017-06-13T08:48:58.169Z,42.50
2017-06-13T08:51:32.796Z,42.20
2017-06-13T08:54:06.592Z,42.20
2017-06-13T08:56:41.304Z,42.00
2017-06-13T08:59:16.115Z,40.20
2017-06-13T09:01:50.761Z,40.00
2017-06-13T09:04:24.687Z,40.00
2017-06-13T09:06:59.323Z,40.70
2017-06-13T09:09:33.417Z,40.50
2017-06-13T09:12:07.502Z,42.00
2017-06-13T09:14:42.840Z,44.00
2017-06-13T09:17:16.884Z,44.10
2017-06-13T09:19:51.364Z,45.10
2017-06-13T09:22:25.372Z,45.10
2017-06-13T09:24:59.084Z,43.90
2017-06-13T09:27:32.864Z,43.40
2017-06-13T09:30:06.692Z,43.40
2017-06-13T09:32:41.361Z,43.40
2017-06-13T09:35:15.274Z,43.40
2017-06-13T09:37:49.152Z,42.90
2017-06-13T09:40:22.928Z,42.80
2017-06-13T09:42:57.488Z,43.10
2017-06-13T09:45:31.383Z,43.10
2017-06-13T09:48:06.048Z,42.20
2017-06-13T09:50:40.833Z,41.10
2017-06-13T09:53:14.825Z,41.00
2017-06-13T09:55:49.263Z,42.50
2017-06-13T09:58:24.453Z,42.50
2017-06-13T10:00:59.120Z,39.80
2017-06-13T10:03:33.300Z,39.80
2017-06-13T10:06:07.087Z,41.00
2017-06-13T10:08:40.941Z,39.40
2017-06-13T10:11:14.664Z,39.70
2017-06-13T10:13:48.717Z,39.20
2017-06-13T10:16:23.288Z,38.80
2017-06-13T10:18:57.269Z,38.80
2017-06-13T10:21:31.719Z,39.10
2017-06-13T10:24:05.748Z,39.00
2017-06-13T10:26:40.252Z,38.20
2017-06-13T10:29:15.551Z,38.70
2017-06-13T10:31:49.344Z,39.50
2017-06-13T10:34:23.968Z,39.50
2017-06-13T10:36:58.072Z,39.40
2017-06-13T10:39:32.593Z,40.40
2017-06-13T10:42:07.295Z,38.90
2017-06-13T10:44:41.569Z,38.90
2017-06-13T10:47:15.928Z,40.20
2017-06-13T10:49:50.676Z,40.20
2017-06-13T10:52:24.597Z,39.60
2017-06-13T10:54:59.345Z,39.80
2017-06-13T10:57:34.016Z,39.00
2017-06-13T11:00:07.996Z,39.00
2017-06-13T11:02:42.553Z,39.00
2017-06-13T11:05:16.598Z,39.00
2017-06-13T11:07:50.991Z,38.20
2017-06-13T11:10:25.172Z,38.20
2017-06-13T11:12:59.671Z,38.70
2017-06-13T11:15:33.445Z,38.50
2017-06-13T11:18:07.869Z,38.50
2017-06-13T11:20:41.948Z,38.50
2017-06-13T11:23:15.741Z,39.00
2017-06-13T11:25:49.601Z,38.70
2017-06-13T11:28:24.108Z,39.50
2017-06-13T11:30:58.174Z,38.90
2017-06-13T11:33:31.967Z,37.70
2017-06-13T11:36:05.925Z,39.20
2017-06-13T11:38:39.481Z,38.40
2017-06-13T11:41:14.205Z,37.80
2017-06-13T11:43:48.108Z,37.50
2017-06-13T11:46:22.075Z,37.50
2017-06-13T11:48:55.792Z,38.50
2017-06-13T11:51:29.685Z,37.70
2017-06-13T11:54:03.456Z,39.30
2017-06-13T11:56:38.076Z,38.20
2017-06-13T11:59:11.984Z,38.10
2017-06-13T12:01:45.956Z,37.90
2017-06-13T12:04:19.612Z,38.90
2017-06-13T12:06:53.449Z,38.00
2017-06-13T12:09:27.040Z,39.40
2017-06-13T12:12:01.595Z,39.00
2017-06-13T12:14:35.376Z,39.90
2017-06-13T12:17:10.052Z,40.50
2017-06-13T12:19:44.066Z,39.90
2017-06-13T12:22:17.940Z,39.50
2017-06-13T12:24:51.695Z,38.80
2017-06-13T12:27:25.520Z,38.60
2017-06-13T12:29:59.116Z,37.90
2017-06-13T12:32:32.844Z,38.90
2017-06-13T12:35:06.524Z,38.40
2017-06-13T12:37:40.293Z,37.80
2017-06-13T12:40:13.957Z,39.20
2017-06-13T12:42:47.681Z,37.30
2017-06-13T12:45:22.181Z,37.90
2017-06-13T12:47:56.330Z,37.80
2017-06-13T12:50:30.808Z,38.00
2017-06-13T12:53:04.891Z,38.00
2017-06-13T12:55:38.677Z,38.50
2017-06-13T12:58:13.633Z,38.90
2017-06-13T13:00:47.388Z,37.90
2017-06-13T13:03:21.103Z,38.20
2017-06-13T13:05:54.768Z,37.90
2017-06-13T13:08:28.736Z,37.60
2017-06-13T13:11:03.205Z,37.80
2017-06-13T13:13:37.216Z,37.80
2017-06-13T13:16:11.876Z,38.90
2017-06-13T13:18:45.706Z,39.20
2017-06-13T13:21:19.435Z,37.80
2017-06-13T13:23:53.317Z,37.30
2017-06-13T13:26:26.971Z,37.80
2017-06-13T13:29:02.834Z,38.30
2017-06-13T13:31:36.656Z,38.60
2017-06-13T13:34:10.553Z,39.10
2017-06-13T13:36:44.181Z,38.20
2017-06-13T13:39:18.028Z,39.00
2017-06-13T13:41:51.713Z,38.00
2017-06-13T13:44:25.743Z,38.00
2017-06-13T13:46:59.397Z,38.10
2017-06-13T13:49:33.172Z,39.30
2017-06-13T13:52:07.634Z,39.50
2017-06-13T13:54:41.447Z,37.90
2017-06-13T13:57:16.127Z,37.40
2017-06-13T13:59:51.172Z,37.40
2017-06-13T14:02:25.679Z,37.60
2017-06-13T14:04:59.837Z,37.60
2017-06-13T14:07:33.621Z,38.20
2017-06-13T14:10:07.496Z,37.50
2017-06-13T14:12:41.352Z,37.60
2017-06-13T14:15:15.200Z,38.40
2017-06-13T14:17:49.649Z,38.10
2017-06-13T14:20:24.504Z,36.30
2017-06-13T14:22:58.416Z,36.70
2017-06-13T14:25:33.784Z,35.80
2017-06-13T14:28:07.752Z,35.80
2017-06-13T14:30:41.480Z,35.80
2017-06-13T14:33:15.251Z,37.50
2017-06-13T14:35:49.904Z,37.20
2017-06-13T14:38:23.836Z,37.10
2017-06-13T14:40:57.829Z,36.70
2017-06-13T14:43:32.396Z,36.60
2017-06-13T14:46:07.010Z,34.30
2017-06-13T14:48:40.601Z,34.20
2017-06-13T14:51:15.100Z,35.70
2017-06-13T14:53:49.084Z,35.60
2017-06-13T14:56:23.824Z,33.90
2017-06-13T14:58:57.536Z,33.80
2017-06-13T15:01:31.244Z,34.10
2017-06-13T15:04:04.821Z,34.30
2017-06-13T15:06:39.524Z,32.70
2017-06-13T15:09:13.284Z,32.60
2017-06-13T15:11:47.916Z,34.90
2017-06-13T15:14:21.810Z,34.80
2017-06-13T15:16:56.437Z,34.60
2017-06-13T15:19:30.344Z,33.50
2017-06-13T15:22:04.884Z,33.50
2017-06-13T15:24:38.878Z,33.50
2017-06-13T15:27:13.531Z,32.10
2017-06-13T15:29:47.415Z,30.70
2017-06-13T15:32:21.092Z,30.80
2017-06-13T15:34:54.821Z,29.40
2017-06-13T15:37:28.640Z,29.90
2017-06-13T15:40:03.207Z,29.70
2017-06-13T15:42:37.271Z,29.70
2017-06-13T15:45:11.030Z,30.70
2017-06-13T15:47:44.882Z,30.20
2017-06-13T15:50:20.272Z,30.20
2017-06-13T15:52:54.309Z,30.20
2017-06-13T15:55:27.968Z,29.30
2017-06-13T15:58:02.819Z,28.30
2017-06-13T16:00:36.577Z,28.00
2017-06-13T16:03:10.311Z,27.90
2017-06-13T16:05:43.928Z,27.90
2017-06-13T16:08:17.679Z,28.10
2017-06-13T16:10:51.332Z,27.30
2017-06-13T16:13:25.088Z,29.10
2017-06-13T16:15:58.801Z,29.60
2017-06-13T16:18:32.674Z,28.00
2017-06-13T16:21:06.473Z,29.40
2017-06-13T16:23:40.617Z,29.10
2017-06-13T16:26:15.924Z,27.20
2017-06-13T16:28:50.973Z,25.70
2017-06-13T16:31:24.784Z,25.70
2017-06-13T16:33:58.650Z,26.40
2017-06-13T16:36:33.098Z,27.10
2017-06-13T16:39:07.189Z,27.10
2017-06-13T16:41:41.621Z,28.60
2017-06-13T16:44:15.607Z,28.10
2017-06-13T16:46:50.153Z,27.10
2017-06-13T16:49:23.988Z,27.10
2017-06-13T16:51:57.688Z,26.70
2017-06-13T16:54:31.659Z,25.50
2017-06-13T16:57:06.089Z,25.90
2017-06-13T16:59:41.117Z,25.80
2017-06-13T17:02:14.829Z,27.60
2017-06-13T17:04:48.656Z,28.50
2017-06-13T17:07:22.236Z,29.50
2017-06-13T17:09:56.086Z,30.90
2017-06-13T17:12:30.602Z,32.30
2017-06-13T17:15:04.460Z,31.50
2017-06-13T17:17:38.152Z,33.30
2017-06-13T17:20:11.977Z,33.20
2017-06-13T17:22:45.560Z,33.20
2017-06-13T17:25:19.356Z,33.20
2017-06-13T17:27:53.070Z,34.20
2017-06-13T17:30:28.072Z,34.20
2017-06-13T17:33:01.749Z,34.30
2017-06-13T17:35:35.701Z,34.10
2017-06-13T17:38:10.256Z,34.90
2017-06-13T17:40:44.844Z,34.60
2017-06-13T17:43:18.660Z,34.50
2017-06-13T17:45:53.057Z,34.80
2017-06-13T17:48:27.732Z,34.40
2017-06-13T17:51:02.632Z,34.30
2017-06-13T17:53:36.555Z,34.20
2017-06-13T17:56:10.359Z,34.50
2017-06-13T17:58:44.057Z,36.00
2017-06-13T18:01:17.764Z,35.80
2017-06-13T18:03:51.464Z,36.30
2017-06-13T18:06:25.268Z,36.00
2017-06-13T18:08:59.071Z,36.70
2017-06-13T18:11:33.780Z,37.30
2017-06-13T18:14:07.583Z,37.30
2017-06-13T18:16:42.201Z,38.50
2017-06-13T18:19:16.208Z,38.10
2017-06-13T18:21:50.731Z,38.50
2017-06-13T18:24:25.529Z,39.10
2017-06-13T18:26:59.716Z,39.10
2017-06-13T18:29:33.448Z,38.30
2017-06-13T18:32:07.284Z,38.70
2017-06-13T18:34:41.768Z,39.80
2017-06-13T18:37:15.793Z,39.10
2017-06-13T18:39:50.301Z,39.10
2017-06-13T18:42:24.279Z,39.00
2017-06-13T18:44:57.942Z,38.70
2017-06-13T18:47:31.788Z,39.00
2017-06-13T18:50:05.451Z,39.30
2017-06-13T18:52:39.987Z,39.50
2017-06-13T18:55:14.576Z,40.30
2017-06-13T18:57:49.648Z,40.20
2017-06-13T19:00:23.337Z,40.40
2017-06-13T19:02:58.005Z,41.00
2017-06-13T19:05:32.759Z,41.50
2017-06-13T19:08:06.848Z,40.80
2017-06-13T19:10:40.628Z,41.60
2017-06-13T19:13:14.967Z,41.90
2017-06-13T19:15:49.236Z,41.50
2017-06-13T19:18:23.308Z,42.30
2017-06-13T19:20:57.040Z,42.80
2017-06-13T19:23:30.909Z,43.30
2017-06-13T19:26:04.645Z,45.60
2017-06-13T19:28:40.140Z,44.70
2017-06-13T19:31:13.929Z,46.40
2017-06-13T19:33:48.593Z,47.30
2017-06-13T19:36:23.152Z,48.50
2017-06-13T19:38:57.087Z,48.50
2017-06-13T19:41:30.644Z,48.00
2017-06-13T19:44:05.198Z,46.30
2017-06-13T19:46:38.827Z,46.00
2017-06-13T19:49:13.456Z,47.90
2017-06-13T19:51:47.281Z,47.80
2017-06-13T19:54:20.948Z,46.70
2017-06-13T19:56:54.660Z,49.20
2017-06-13T19:59:29.425Z,48.10
2017-06-13T20:02:03.120Z,48.10
2017-06-13T20:04:37.048Z,48.30
2017-06-13T20:07:11.597Z,48.80
2017-06-13T20:09:46.444Z,50.10
2017-06-13T20:12:20.407Z,50.10
2017-06-13T20:14:54.704Z,50.60
2017-06-13T20:17:28.996Z,51.70
2017-06-13T20:20:02.775Z,51.00
2017-06-13T20:22:36.623Z,51.70
2017-06-13T20:25:11.257Z,53.40
2017-06-13T20:27:45.084Z,52.20
2017-06-13T20:30:26.854Z,52.50
2017-06-13T20:33:01.429Z,53.30
2017-06-13T20:35:35.538Z,53.20
2017-06-13T20:38:09.247Z,52.10
2017-06-13T20:40:43.228Z,52.90
2017-06-13T20:43:17.008Z,53.00
2017-06-13T20:45:51.612Z,54.10
2017-06-13T20:48:25.540Z,54.20
2017-06-13T20:51:00.237Z,54.90
2017-06-13T20:53:34.068Z,54.80
2017-06-13T20:56:07.904Z,55.10
2017-06-13T20:58:41.677Z,54.20
2017-06-13T21:01:16.338Z,55.00
2017-06-13T21:03:49.933Z,56.10
2017-06-13T21:06:24.416Z,54.60
2017-06-13T21:08:58.341Z,54.60
2017-06-13T21:11:32.967Z,55.70
2017-06-13T21:14:06.876Z,55.50
2017-06-13T21:16:40.724Z,57.00
2017-06-13T21:19:14.386Z,56.50
2017-06-13T21:21:48.304Z,57.30
2017-06-13T21:24:22.060Z,57.40
2017-06-13T21:26:55.925Z,57.70
2017-06-13T21:29:30.389Z,56.90
2017-06-13T21:32:04.385Z,56.80
2017-06-13T21:34:38.825Z,56.80
2017-06-13T21:37:12.904Z,56.80
2017-06-13T21:39:47.480Z,56.80
2017-06-13T21:42:21.242Z,57.00
2017-06-13T21:44:54.867Z,57.40
2017-06-13T21:47:28.668Z,57.80
2017-06-13T21:50:02.480Z,57.40
2017-06-13T21:52:36.152Z,58.00
2017-06-13T21:55:10.685Z,58.20
2017-06-13T21:57:45.672Z,58.20
2017-06-13T22:00:20.244Z,58.90
2017-06-13T22:02:54.200Z,58.90
2017-06-13T22:05:27.766Z,59.20
2017-06-13T22:08:01.464Z,59.60
2017-06-13T22:10:35.166Z,58.80
2017-06-13T22:13:09.045Z,58.80
2017-06-13T22:15:43.597Z,59.10
2017-06-13T22:18:17.404Z,60.50
2017-06-13T22:20:51.932Z,59.40
2017-06-13T22:23:25.953Z,59.40
2017-06-13T22:26:00.452Z,60.00
2017-06-13T22:28:35.591Z,59.30
2017-06-13T22:31:09.421Z,59.80
2017-06-13T22:33:44.156Z,60.70
2017-06-13T22:36:17.827Z,60.40
2017-06-13T22:38:52.496Z,61.00
2017-06-13T22:41:26.456Z,60.80
2017-06-13T22:44:01.125Z,59.70
2017-06-13T22:46:35.141Z,59.60
2017-06-13T22:49:09.003Z,60.30
2017-06-13T22:51:42.696Z,59.60
2017-06-13T22:54:16.448Z,59.60
2017-06-13T22:56:50.108Z,61.40
2017-06-13T22:59:25.036Z,60.30
2017-06-13T23:01:58.792Z,61.00
2017-06-13T23:04:33.447Z,60.90
2017-06-13T23:07:07.349Z,60.80
2017-06-13T23:09:41.367Z,61.50
2017-06-13T23:12:15.839Z,61.60
2017-06-13T23:14:50.704Z,61.30
2017-06-13T23:17:24.682Z,61.20
2017-06-13T23:19:58.500Z,61.30
2017-06-13T23:22:33.040Z,61.70
2017-06-13T23:25:07.653Z,63.10
2017-06-13T23:27:42.355Z,63.20
2017-06-13T23:30:17.024Z,62.90
2017-06-13T23:32:50.981Z,62.80
2017-06-13T23:35:24.881Z,62.80
2017-06-13T23:37:58.712Z,62.40
2017-06-13T23:40:32.584Z,62.00
2017-06-13T23:43:06.216Z,61.30
2017-06-13T23:45:40.892Z,63.40
2017-06-13T23:48:15.673Z,63.70
2017-06-13T23:50:49.708Z,63.50
2017-06-13T23:53:23.324Z,63.10
2017-06-13T23:55:57.960Z,63.30
2017-06-13T23:58:32.619Z,64.00
